Time;durP1;ratioP1;P1;durP2;ratioP2;P2;SDS_P1;SDS_P2;PMS_P1;PMS_P2;Temp;Humidity;BMP_temperature;BMP_pressure;BME280_temperature;BME280_humidity;BME280_pressure;Samples;Min_cycle;Max_cycle;Signal;HPM_P1;HPM_P2
2022/12/19 00:01:20;;;;;;;;;;;6.50;60.00;;;;;;5021978;28;19914;-85
2022/12/19 00:03:46;;;;;;;;;;;6.60;60.00;;;;;;5015576;28;19925;-88
2022/12/19 00:06:12;;;;;;;;;;;6.60;60.00;;;;;;5016689;28;20079;-85
2022/12/19 00:08:39;;;;;;;;;;;6.60;60.20;;;;;;5022230;28;19983;-86
2022/12/19 00:11:05;;;;;;;;;;;6.60;60.30;;;;;;5012085;28;20389;-86
2022/12/19 00:13:31;;;;;;;;;;;6.60;60.30;;;;;;5013187;28;19920;-85
2022/12/19 00:16:01;;;;;;;;;;;6.60;60.30;;;;;;5027388;28;19924;-86
2022/12/19 00:18:26;;;;;;;;;;;6.60;60.40;;;;;;5009923;28;19909;-86
2022/12/19 00:20:56;;;;;;;;;;;6.60;60.40;;;;;;5026175;28;20307;-86
2022/12/19 00:23:21;;;;;;;;;;;6.60;60.60;;;;;;5033543;28;19917;-86
2022/12/19 00:25:47;;;;;;;;;;;6.60;60.50;;;;;;5032927;28;19917;-87
2022/12/19 00:28:12;;;;;;;;;;;6.60;60.50;;;;;;5036615;28;19956;-85
2022/12/19 00:30:38;;;;;;;;;;;6.70;60.60;;;;;;5033250;28;20288;-86
2022/12/19 00:33:03;;;;;;;;;;;6.70;60.50;;;;;;5032822;28;20273;-85
2022/12/19 00:35:29;;;;;;;;;;;6.60;60.60;;;;;;5031553;28;19952;-85
2022/12/19 00:37:54;;;;;;;;;;;6.70;60.70;;;;;;5017742;28;19933;-86
2022/12/19 00:40:20;;;;;;;;;;;6.70;60.70;;;;;;5015885;28;19917;-87
2022/12/19 00:42:46;;;;;;;;;;;6.70;60.60;;;;;;5033596;28;19912;-87
2022/12/19 00:45:11;;;;;;;;;;;6.70;60.60;;;;;;5032995;28;20050;-86
2022/12/19 00:47:37;;;;;;;;;;;6.70;60.60;;;;;;5032899;28;19910;-87
2022/12/19 00:50:02;;;;;;;;;;;6.70;60.50;;;;;;5033208;28;20000;-87
2022/12/19 00:52:28;;;;;;;;;;;6.70;60.40;;;;;;5031435;28;19917;-87
2022/12/19 00:54:53;;;;;;;;;;;6.60;60.40;;;;;;5034230;28;19932;-86
2022/12/19 00:57:22;;;;;;;;;;;6.60;60.60;;;;;;5033741;28;19910;-84
2022/12/19 00:59:47;;;;;;;;;;;6.60;60.60;;;;;;5032811;28;19962;-88
2022/12/19 01:02:13;;;;;;;;;;;6.60;60.60;;;;;;5031191;28;19909;-88
2022/12/19 01:04:38;;;;;;;;;;;6.50;60.80;;;;;;5033109;28;19917;-87
2022/12/19 01:07:06;;;;;;;;;;;6.50;60.70;;;;;;5033457;28;20367;-86
2022/12/19 01:09:32;;;;;;;;;;;6.50;60.80;;;;;;5035346;28;19913;-87
2022/12/19 01:14:42;;;;;;;;;;;6.60;60.90;;;;;;5034019;28;20064;-86
2022/12/19 01:17:07;;;;;;;;;;;6.60;61.10;;;;;;5032510;28;19972;-86
2022/12/19 01:19:33;;;;;;;;;;;6.60;61.00;;;;;;5033237;28;19909;-86
2022/12/19 01:21:58;;;;;;;;;;;6.60;61.00;;;;;;5034785;28;19952;-87
2022/12/19 01:24:24;;;;;;;;;;;6.60;61.00;;;;;;5038178;28;20338;-87
2022/12/19 01:26:49;;;;;;;;;;;6.70;61.10;;;;;;5035369;28;19932;-86
2022/12/19 01:29:14;;;;;;;;;;;6.60;61.10;;;;;;5033048;28;19920;-88
2022/12/19 01:31:40;;;;;;;;;;;6.70;61.10;;;;;;5031893;28;19913;-86
2022/12/19 01:34:05;;;;;;;;;;;6.70;61.10;;;;;;5024738;28;19996;-86
2022/12/19 01:36:31;;;;;;;;;;;6.70;61.20;;;;;;5023420;28;19913;-86
2022/12/19 01:38:56;;;;;;;;;;;6.70;61.30;;;;;;5016934;28;19976;-87
2022/12/19 01:41:22;;;;;;;;;;;6.80;61.50;;;;;;5021144;28;19916;-87
2022/12/19 01:44:01;;;;;;;;;;;6.80;61.70;;;;;;5037389;28;19936;-86
2022/12/19 01:46:44;;;;;;;;;;;6.80;61.80;;;;;;5032945;28;19916;-87
2022/12/19 01:49:15;;;;;;;;;;;6.80;61.80;;;;;;5034944;28;19923;-86
2022/12/19 01:51:41;;;;;;;;;;;6.80;61.70;;;;;;5031270;28;19917;-85
2022/12/19 01:54:09;;;;;;;;;;;6.90;61.70;;;;;;5030733;28;19917;-86
2022/12/19 01:56:37;;;;;;;;;;;6.90;61.50;;;;;;5017862;28;19917;-85
2022/12/19 01:59:09;;;;;;;;;;;7.00;61.60;;;;;;5029995;28;19972;-87
2022/12/19 02:01:35;;;;;;;;;;;7.10;61.50;;;;;;5032632;28;20374;-87
2022/12/19 02:04:01;;;;;;;;;;;7.10;61.40;;;;;;5032406;28;20352;-88
2022/12/19 02:06:27;;;;;;;;;;;7.10;61.30;;;;;;5031625;28;19936;-87
2022/12/19 02:08:54;;;;;;;;;;;7.20;61.30;;;;;;5031903;28;19917;-86
2022/12/19 02:11:20;;;;;;;;;;;7.10;61.50;;;;;;5030340;28;19913;-88
2022/12/19 02:13:45;;;;;;;;;;;7.10;61.30;;;;;;5031401;28;19971;-88
2022/12/19 02:16:16;;;;;;;;;;;7.20;61.30;;;;;;5031159;28;19921;-88
2022/12/19 02:18:51;;;;;;;;;;;7.20;61.30;;;;;;5032280;28;20480;-87
2022/12/19 02:21:35;;;;;;;;;;;7.20;61.40;;;;;;5030535;28;19920;-88
2022/12/19 02:24:00;;;;;;;;;;;7.20;61.40;;;;;;5032060;28;20036;-87
2022/12/19 02:26:36;;;;;;;;;;;7.10;61.70;;;;;;5029630;28;19996;-87
2022/12/19 02:29:20;;;;;;;;;;;7.20;61.70;;;;;;5031669;28;19925;-87
2022/12/19 02:31:54;;;;;;;;;;;7.20;61.70;;;;;;5037628;28;19913;-87
2022/12/19 02:34:24;;;;;;;;;;;7.20;61.60;;;;;;5030282;28;19948;-88
2022/12/19 02:37:08;;;;;;;;;;;7.10;61.60;;;;;;5031135;28;19920;-88
2022/12/19 02:39:42;;;;;;;;;;;7.20;61.60;;;;;;5030680;28;19918;-89
2022/12/19 02:42:10;;;;;;;;;;;7.30;61.70;;;;;;5028480;28;19921;-87
2022/12/19 02:44:41;;;;;;;;;;;7.20;61.50;;;;;;5029948;28;19928;-88
2022/12/19 02:47:07;;;;;;;;;;;7.30;61.40;;;;;;5030517;28;19917;-88
2022/12/19 02:49:34;;;;;;;;;;;7.40;61.40;;;;;;5031695;28;19919;-87
2022/12/19 02:52:18;;;;;;;;;;;7.40;61.50;;;;;;5029323;28;19928;-87
2022/12/19 02:54:43;;;;;;;;;;;7.40;61.30;;;;;;5030867;28;20418;-88
2022/12/19 02:57:20;;;;;;;;;;;7.40;61.40;;;;;;5030194;28;19956;-87
2022/12/19 02:59:52;;;;;;;;;;;7.50;61.30;;;;;;5029172;28;19917;-89
2022/12/19 03:02:33;;;;;;;;;;;7.50;61.00;;;;;;5033287;28;19918;-88
2022/12/19 03:04:58;;;;;;;;;;;7.50;61.10;;;;;;5030713;28;19925;-87
2022/12/19 03:07:24;;;;;;;;;;;7.60;61.00;;;;;;5031180;28;19971;-87
2022/12/19 03:10:08;;;;;;;;;;;7.70;61.00;;;;;;5030529;28;19914;-89
2022/12/19 03:12:37;;;;;;;;;;;7.70;61.00;;;;;;5032573;28;19924;-87
2022/12/19 03:15:03;;;;;;;;;;;7.70;61.00;;;;;;5029367;28;19916;-88
2022/12/19 03:17:33;;;;;;;;;;;7.80;60.90;;;;;;5031672;28;20000;-90
2022/12/19 03:19:58;;;;;;;;;;;7.80;60.90;;;;;;5031005;28;19913;-89
2022/12/19 03:22:24;;;;;;;;;;;7.70;60.90;;;;;;5028802;28;20012;-87
2022/12/19 03:24:49;;;;;;;;;;;7.80;60.80;;;;;;5031296;28;19960;-88
2022/12/19 03:27:21;;;;;;;;;;;7.80;60.90;;;;;;5028019;28;19918;-87
2022/12/19 03:30:06;;;;;;;;;;;7.80;60.90;;;;;;5009273;28;20374;-89
2022/12/19 03:32:33;;;;;;;;;;;7.80;61.00;;;;;;5009140;28;20352;-90
2022/12/19 03:35:02;;;;;;;;;;;7.70;61.10;;;;;;5016226;28;20000;-87
2022/12/19 03:37:30;;;;;;;;;;;7.80;61.20;;;;;;5013140;28;20815;-87
2022/12/19 03:40:00;;;;;;;;;;;7.80;61.10;;;;;;5016845;28;19913;-88
2022/12/19 03:45:12;;;;;;;;;;;7.80;61.30;;;;;;5030363;28;20375;-88
2022/12/19 03:47:40;;;;;;;;;;;7.80;61.30;;;;;;5031110;28;20361;-88
2022/12/19 03:50:07;;;;;;;;;;;7.80;61.40;;;;;;5020382;28;19980;-90
2022/12/19 03:53:05;;;;;;;;;;;7.80;61.40;;;;;;5010064;28;19928;-90
2022/12/19 03:55:32;;;;;;;;;;;7.90;61.50;;;;;;4986092;28;19909;-90
2022/12/19 03:58:02;;;;;;;;;;;7.80;61.50;;;;;;5027231;28;19967;-90
2022/12/19 04:00:28;;;;;;;;;;;7.90;61.60;;;;;;5034094;28;19913;-86
2022/12/19 04:02:55;;;;;;;;;;;7.90;61.50;;;;;;5034057;28;19960;-88
2022/12/19 04:05:22;;;;;;;;;;;7.90;61.70;;;;;;5033773;28;20188;-88
2022/12/19 04:07:48;;;;;;;;;;;8.00;61.60;;;;;;5034392;28;19979;-89
2022/12/19 04:10:15;;;;;;;;;;;8.00;61.60;;;;;;5034292;28;20617;-89
2022/12/19 04:12:43;;;;;;;;;;;8.10;61.50;;;;;;5032860;28;20015;-90
2022/12/19 04:15:09;;;;;;;;;;;8.10;61.60;;;;;;5035825;28;19964;-88
2022/12/19 04:17:39;;;;;;;;;;;8.10;61.60;;;;;;5032139;28;19917;-88
2022/12/19 04:20:10;;;;;;;;;;;8.20;61.60;;;;;;5032479;28;19909;-90
2022/12/19 04:22:38;;;;;;;;;;;8.10;61.70;;;;;;5033054;28;19999;-88
2022/12/19 04:25:09;;;;;;;;;;;8.20;61.60;;;;;;5038625;28;19921;-88
2022/12/19 04:27:35;;;;;;;;;;;8.30;61.70;;;;;;5033685;28;19963;-88
2022/12/19 04:30:02;;;;;;;;;;;8.30;61.70;;;;;;5037731;28;19948;-89
2022/12/19 04:32:28;;;;;;;;;;;8.30;61.50;;;;;;5033306;28;19921;-88
2022/12/19 04:34:54;;;;;;;;;;;8.40;61.70;;;;;;5035704;28;20007;-90
2022/12/19 04:37:19;;;;;;;;;;;8.40;61.50;;;;;;5035927;28;19961;-88
2022/12/19 04:39:45;;;;;;;;;;;8.40;61.50;;;;;;5032202;28;19909;-89
2022/12/19 04:42:10;;;;;;;;;;;8.40;61.70;;;;;;5033416;28;20303;-88
2022/12/19 04:44:36;;;;;;;;;;;8.40;61.70;;;;;;5035703;28;19965;-88
2022/12/19 04:47:02;;;;;;;;;;;8.50;61.60;;;;;;5036351;28;19924;-88
2022/12/19 04:49:27;;;;;;;;;;;8.50;61.60;;;;;;5031763;28;19960;-89
2022/12/19 04:51:53;;;;;;;;;;;8.60;61.60;;;;;;5034372;28;19939;-88
2022/12/19 04:54:18;;;;;;;;;;;8.50;61.60;;;;;;5032361;28;19920;-89
2022/12/19 04:56:44;;;;;;;;;;;8.60;61.60;;;;;;5033527;28;19968;-90
2022/12/19 04:59:09;;;;;;;;;;;8.60;61.70;;;;;;5034152;28;20012;-88
2022/12/19 05:01:35;;;;;;;;;;;8.50;61.80;;;;;;5032966;28;19909;-89
2022/12/19 05:04:00;;;;;;;;;;;8.50;61.90;;;;;;5028760;28;19929;-89
2022/12/19 05:06:25;;;;;;;;;;;8.60;61.80;;;;;;5030325;28;19909;-88
2022/12/19 05:08:51;;;;;;;;;;;8.60;61.90;;;;;;5031848;28;19917;-88
2022/12/19 05:11:16;;;;;;;;;;;8.50;61.80;;;;;;5031661;28;19925;-88
2022/12/19 05:13:42;;;;;;;;;;;8.50;61.90;;;;;;5033232;28;20352;-88
2022/12/19 05:16:08;;;;;;;;;;;8.50;61.70;;;;;;5031452;28;20491;-88
2022/12/19 05:18:34;;;;;;;;;;;8.40;62.00;;;;;;5031344;28;20393;-88
2022/12/19 05:21:00;;;;;;;;;;;8.50;62.10;;;;;;5027374;28;19913;-88
2022/12/19 05:23:26;;;;;;;;;;;8.50;62.20;;;;;;5026293;28;20364;-87
2022/12/19 05:25:51;;;;;;;;;;;8.50;62.10;;;;;;5036602;28;19913;-87
2022/12/19 05:28:17;;;;;;;;;;;8.50;62.20;;;;;;5012556;28;20415;-88
2022/12/19 05:30:44;;;;;;;;;;;8.50;62.20;;;;;;5021945;28;19914;-89
2022/12/19 05:33:09;;;;;;;;;;;8.50;62.20;;;;;;5029661;28;19921;-89
2022/12/19 05:35:35;;;;;;;;;;;8.40;62.30;;;;;;5013625;28;19964;-88
2022/12/19 05:38:00;;;;;;;;;;;8.50;62.40;;;;;;5020735;28;19921;-89
2022/12/19 05:40:26;;;;;;;;;;;8.40;62.40;;;;;;5032492;28;19909;-90
2022/12/19 05:42:52;;;;;;;;;;;8.40;62.70;;;;;;5033640;28;20019;-88
2022/12/19 05:45:17;;;;;;;;;;;8.50;62.70;;;;;;5033578;28;19971;-89
2022/12/19 05:47:45;;;;;;;;;;;8.50;62.80;;;;;;5032381;28;19920;-89
2022/12/19 05:50:13;;;;;;;;;;;8.50;62.60;;;;;;5034940;28;19928;-89
2022/12/19 05:52:39;;;;;;;;;;;8.60;62.70;;;;;;5030889;28;19921;-88
2022/12/19 05:55:05;;;;;;;;;;;8.60;62.70;;;;;;5031724;28;19916;-88
2022/12/19 05:57:30;;;;;;;;;;;8.60;62.70;;;;;;5032055;28;19980;-89
2022/12/19 05:59:56;;;;;;;;;;;8.60;62.80;;;;;;5027427;28;19909;-89
2022/12/19 06:02:22;;;;;;;;;;;8.60;62.90;;;;;;5014296;28;19925;-89
2022/12/19 06:04:47;;;;;;;;;;;8.60;62.80;;;;;;5029412;28;19944;-88
2022/12/19 06:07:12;;;;;;;;;;;8.60;62.90;;;;;;5030619;28;19917;-90
2022/12/19 06:09:38;;;;;;;;;;;8.70;63.00;;;;;;5030340;28;19909;-90
2022/12/19 06:12:04;;;;;;;;;;;8.70;63.00;;;;;;5031164;28;19971;-88
2022/12/19 06:14:29;;;;;;;;;;;8.70;63.00;;;;;;5034178;28;20368;-88
2022/12/19 06:16:55;;;;;;;;;;;8.70;63.00;;;;;;5033178;28;20437;-88
2022/12/19 06:19:20;;;;;;;;;;;8.70;63.10;;;;;;5030279;28;19913;-88
2022/12/19 06:21:49;;;;;;;;;;;8.80;63.00;;;;;;5034183;28;19909;-89
2022/12/19 06:24:15;;;;;;;;;;;8.80;63.00;;;;;;5026235;28;19922;-87
2022/12/19 06:26:40;;;;;;;;;;;8.80;63.00;;;;;;5010110;28;20404;-89
2022/12/19 06:29:06;;;;;;;;;;;8.80;63.00;;;;;;5014340;28;19914;-88
2022/12/19 06:31:31;;;;;;;;;;;8.90;63.00;;;;;;5025811;28;20487;-88
2022/12/19 06:33:57;;;;;;;;;;;8.90;63.00;;;;;;5029489;28;19925;-89
2022/12/19 06:36:23;;;;;;;;;;;8.90;63.10;;;;;;5029157;28;19920;-87
2022/12/19 06:38:49;;;;;;;;;;;8.90;63.10;;;;;;5027818;28;20378;-90
2022/12/19 06:44:00;;;;;;;;;;;9.00;63.00;;;;;;5023033;28;19932;-88
2022/12/19 06:46:26;;;;;;;;;;;9.00;63.10;;;;;;5031812;28;19916;-88
2022/12/19 06:48:52;;;;;;;;;;;9.00;63.00;;;;;;5028915;28;19921;-88
2022/12/19 06:51:17;;;;;;;;;;;9.00;63.00;;;;;;5030229;28;19920;-88
2022/12/19 06:53:43;;;;;;;;;;;9.00;63.00;;;;;;5013464;28;19921;-89
2022/12/19 06:56:10;;;;;;;;;;;9.00;63.00;;;;;;5018324;28;19959;-89
2022/12/19 06:58:36;;;;;;;;;;;9.10;62.90;;;;;;5030689;28;19917;-88
2022/12/19 07:01:01;;;;;;;;;;;9.10;62.90;;;;;;5030161;28;19923;-87
2022/12/19 07:03:35;;;;;;;;;;;9.10;62.90;;;;;;5014992;28;19918;-89
2022/12/19 07:06:01;;;;;;;;;;;9.20;63.00;;;;;;5030478;28;19920;-88
2022/12/19 07:08:26;;;;;;;;;;;9.20;63.00;;;;;;5031488;28;19917;-88
2022/12/19 07:10:52;;;;;;;;;;;9.20;62.90;;;;;;5030778;28;19913;-89
2022/12/19 07:13:18;;;;;;;;;;;9.20;62.90;;;;;;5029393;28;20137;-89
2022/12/19 07:15:43;;;;;;;;;;;9.20;63.10;;;;;;5029413;28;19992;-88
2022/12/19 07:18:09;;;;;;;;;;;9.20;63.00;;;;;;5030932;28;19952;-87
2022/12/19 07:20:35;;;;;;;;;;;9.20;63.10;;;;;;5029841;28;20012;-88
2022/12/19 07:23:02;;;;;;;;;;;9.30;63.00;;;;;;5026895;28;19921;-88
2022/12/19 07:25:28;;;;;;;;;;;9.30;62.90;;;;;;5029786;28;19918;-87
2022/12/19 07:27:53;;;;;;;;;;;9.30;62.90;;;;;;5029669;28;19928;-89
2022/12/19 07:30:19;;;;;;;;;;;9.30;62.90;;;;;;5026681;28;19913;-89
2022/12/19 07:32:44;;;;;;;;;;;9.30;62.90;;;;;;5026983;28;19917;-87
2022/12/19 07:35:10;;;;;;;;;;;9.40;63.00;;;;;;5028627;28;19920;-89
2022/12/19 07:37:35;;;;;;;;;;;9.40;62.90;;;;;;5029161;28;20455;-88
2022/12/19 07:40:01;;;;;;;;;;;9.40;62.80;;;;;;5029832;28;19917;-88
2022/12/19 07:42:27;;;;;;;;;;;9.40;62.80;;;;;;5028006;28;19917;-89
2022/12/19 07:44:52;;;;;;;;;;;9.40;62.80;;;;;;5043636;28;19927;-88
2022/12/19 07:47:17;;;;;;;;;;;9.40;62.90;;;;;;5028992;28;19917;-89
2022/12/19 07:49:43;;;;;;;;;;;9.40;62.90;;;;;;5027485;28;19920;-89
2022/12/19 07:52:09;;;;;;;;;;;9.50;62.90;;;;;;5028173;28;20389;-90
2022/12/19 07:54:34;;;;;;;;;;;9.50;63.00;;;;;;5026306;28;19944;-91
2022/12/19 07:57:00;;;;;;;;;;;9.50;63.00;;;;;;5025277;28;20012;-88
2022/12/19 07:59:25;;;;;;;;;;;9.50;63.10;;;;;;5011930;28;20000;-89
2022/12/19 08:01:51;;;;;;;;;;;9.50;63.20;;;;;;5027728;28;20334;-88
2022/12/19 08:04:16;;;;;;;;;;;9.60;63.20;;;;;;5027425;28;19921;-89
2022/12/19 08:06:42;;;;;;;;;;;9.60;63.10;;;;;;5027671;28;19924;-90
2022/12/19 08:09:08;;;;;;;;;;;9.60;63.20;;;;;;5022669;28;19967;-90
2022/12/19 08:11:33;;;;;;;;;;;9.70;63.20;;;;;;5028286;28;20006;-89
2022/12/19 08:14:02;;;;;;;;;;;9.70;63.20;;;;;;5026509;28;20063;-89
2022/12/19 08:16:28;;;;;;;;;;;9.70;63.20;;;;;;5028119;28;19932;-89
2022/12/19 08:18:54;;;;;;;;;;;9.80;63.20;;;;;;5027568;28;19921;-87
2022/12/19 08:21:20;;;;;;;;;;;9.80;63.30;;;;;;5029073;28;19941;-87
2022/12/19 08:23:45;;;;;;;;;;;9.80;63.30;;;;;;5028441;28;19921;-89
2022/12/19 08:26:12;;;;;;;;;;;9.90;63.30;;;;;;5024696;28;19921;-89
2022/12/19 08:28:37;;;;;;;;;;;10.00;63.30;;;;;;5029121;28;20318;-88
2022/12/19 08:31:07;;;;;;;;;;;10.00;63.40;;;;;;5026961;28;19967;-86
2022/12/19 08:33:33;;;;;;;;;;;10.00;63.40;;;;;;5028092;28;19917;-85
2022/12/19 08:36:02;;;;;;;;;;;10.10;63.40;;;;;;5027829;28;19920;-89
2022/12/19 08:38:27;;;;;;;;;;;10.10;63.50;;;;;;5028168;28;19917;-88
2022/12/19 08:40:53;;;;;;;;;;;10.20;63.60;;;;;;5030283;28;20528;-89
2022/12/19 08:43:19;;;;;;;;;;;10.20;63.60;;;;;;5033405;28;20485;-89
2022/12/19 08:45:47;;;;;;;;;;;10.20;63.70;;;;;;5028383;28;20438;-88
2022/12/19 08:48:12;;;;;;;;;;;10.30;63.70;;;;;;5013214;28;19917;-89
2022/12/19 08:50:38;;;;;;;;;;;10.40;63.60;;;;;;5023622;28;20004;-89
2022/12/19 08:53:03;;;;;;;;;;;10.40;63.80;;;;;;5031670;28;20035;-88
2022/12/19 08:55:29;;;;;;;;;;;10.50;63.70;;;;;;5031811;28;20368;-88
2022/12/19 08:57:54;;;;;;;;;;;10.50;63.70;;;;;;5030928;28;19920;-88
2022/12/19 09:00:21;;;;;;;;;;;10.50;63.80;;;;;;5029749;28;20275;-89
2022/12/19 09:02:46;;;;;;;;;;;10.60;63.70;;;;;;5030630;28;20376;-89
2022/12/19 09:05:12;;;;;;;;;;;10.70;63.80;;;;;;5031042;28;19952;-88
2022/12/19 09:07:38;;;;;;;;;;;10.70;63.70;;;;;;5034787;28;19917;-87
2022/12/19 09:10:04;;;;;;;;;;;10.80;63.80;;;;;;5031396;28;20047;-89
2022/12/19 09:12:32;;;;;;;;;;;10.80;63.60;;;;;;5030734;28;20387;-87
2022/12/19 09:14:58;;;;;;;;;;;10.80;63.70;;;;;;5031244;28;20020;-88
2022/12/19 09:17:23;;;;;;;;;;;10.80;63.70;;;;;;5026943;28;20068;-87
2022/12/19 09:19:49;;;;;;;;;;;10.90;63.70;;;;;;5023971;28;19913;-87
2022/12/19 09:22:15;;;;;;;;;;;10.90;63.60;;;;;;5025116;28;19921;-88
2022/12/19 09:24:44;;;;;;;;;;;11.00;63.70;;;;;;5016224;28;20332;-87
2022/12/19 09:27:09;;;;;;;;;;;11.00;63.60;;;;;;5024100;28;19917;-88
2022/12/19 09:29:35;;;;;;;;;;;11.00;63.60;;;;;;5027712;28;19917;-87
2022/12/19 09:32:00;;;;;;;;;;;11.10;63.70;;;;;;5028972;28;20063;-88
2022/12/19 09:34:27;;;;;;;;;;;11.20;63.70;;;;;;5026713;28;19921;-87
2022/12/19 09:36:53;;;;;;;;;;;11.20;63.70;;;;;;5028758;28;19923;-88
2022/12/19 09:39:18;;;;;;;;;;;11.30;63.70;;;;;;5027549;28;20296;-89
2022/12/19 09:41:59;;;;;;;;;;;11.30;63.70;;;;;;5027359;28;19963;-87
2022/12/19 09:44:43;;;;;;;;;;;11.40;63.70;;;;;;5026934;28;19929;-88
2022/12/19 09:47:09;;;;;;;;;;;11.40;63.90;;;;;;5026123;28;19929;-87
2022/12/19 09:49:34;;;;;;;;;;;11.50;64.10;;;;;;5026568;28;19992;-88
2022/12/19 09:52:09;;;;;;;;;;;11.60;64.10;;;;;;5028340;28;20337;-89
2022/12/19 09:54:37;;;;;;;;;;;11.70;64.20;;;;;;5023171;28;19921;-87
2022/12/19 09:57:10;;;;;;;;;;;11.80;64.30;;;;;;5024021;28;19964;-89
2022/12/19 09:59:41;;;;;;;;;;;11.90;64.30;;;;;;5020747;28;20315;-86
2022/12/19 10:02:12;;;;;;;;;;;12.00;64.20;;;;;;5028100;28;19971;-86
2022/12/19 10:04:44;;;;;;;;;;;12.10;64.30;;;;;;5020512;28;19933;-88
2022/12/19 10:07:10;;;;;;;;;;;12.20;64.30;;;;;;5023749;28;19917;-89
2022/12/19 10:09:38;;;;;;;;;;;12.20;64.40;;;;;;5026200;28;19921;-87
2022/12/19 10:12:22;;;;;;;;;;;12.30;64.50;;;;;;5027201;28;19939;-86
2022/12/19 10:14:54;;;;;;;;;;;12.40;64.60;;;;;;5026919;28;19943;-86
2022/12/19 10:17:25;;;;;;;;;;;12.50;64.60;;;;;;5016047;28;20395;-87
2022/12/19 10:19:57;;;;;;;;;;;12.60;64.70;;;;;;5017006;28;19925;-88
2022/12/19 10:22:26;;;;;;;;;;;12.70;64.60;;;;;;5015411;28;20012;-87
2022/12/19 10:24:55;;;;;;;;;;;12.70;64.60;;;;;;5016655;28;20649;-87
2022/12/19 10:27:21;;;;;;;;;;;12.80;64.70;;;;;;5018126;28;20284;-89
2022/12/19 10:29:46;;;;;;;;;;;12.90;64.60;;;;;;5050537;28;20013;-88
2022/12/19 10:32:24;;;;;;;;;;;13.00;64.70;;;;;;5024706;28;20035;-87
2022/12/19 10:34:50;;;;;;;;;;;13.10;64.70;;;;;;5028011;28;20404;-86
2022/12/19 10:37:26;;;;;;;;;;;13.20;64.80;;;;;;5025880;28;20381;-87
2022/12/19 10:40:24;;;;;;;;;;;13.30;64.70;;;;;;5025829;28;19961;-88
2022/12/19 10:42:49;;;;;;;;;;;13.30;64.60;;;;;;4983620;28;19913;-87
2022/12/19 10:45:18;;;;;;;;;;;13.40;64.90;;;;;;5027689;28;20669;-88
2022/12/19 10:47:46;;;;;;;;;;;13.50;64.50;;;;;;5027883;28;19921;-87
2022/12/19 10:50:12;;;;;;;;;;;13.60;64.30;;;;;;5025646;28;19921;-87
2022/12/19 10:52:47;;;;;;;;;;;13.70;64.10;;;;;;5026005;28;19928;-88
2022/12/19 10:55:26;;;;;;;;;;;13.70;64.00;;;;;;5027199;28;19957;-87
2022/12/19 10:57:51;;;;;;;;;;;13.80;64.00;;;;;;5025599;28;19929;-87
2022/12/19 11:00:17;;;;;;;;;;;13.80;64.00;;;;;;5011106;28;20266;-87
2022/12/19 11:02:46;;;;;;;;;;;13.80;63.80;;;;;;5007884;28;19929;-87
2022/12/19 11:05:22;;;;;;;;;;;13.80;63.80;;;;;;5024997;28;19929;-88
2022/12/19 11:08:00;;;;;;;;;;;13.80;63.90;;;;;;5010933;28;19982;-88
2022/12/19 11:10:38;;;;;;;;;;;13.80;63.90;;;;;;5009245;28;19914;-87
2022/12/19 11:13:18;;;;;;;;;;;13.80;64.10;;;;;;5019118;28;20283;-86
2022/12/19 11:16:03;;;;;;;;;;;13.80;64.30;;;;;;5025883;28;20342;-88
2022/12/19 11:18:36;;;;;;;;;;;13.90;64.40;;;;;;5023812;28;19925;-87
2022/12/19 11:21:13;;;;;;;;;;;14.00;64.40;;;;;;5025318;28;19928;-87
2022/12/19 11:23:47;;;;;;;;;;;14.00;64.40;;;;;;5028139;28;19959;-87
2022/12/19 11:26:25;;;;;;;;;;;14.10;64.40;;;;;;5019461;28;19929;-89
2022/12/19 11:28:51;;;;;;;;;;;14.10;64.30;;;;;;5017996;28;19917;-88
2022/12/19 11:31:20;;;;;;;;;;;14.20;64.40;;;;;;5007313;28;20294;-89
2022/12/19 11:33:52;;;;;;;;;;;14.30;64.30;;;;;;5023602;28;19912;-89
2022/12/19 11:36:38;;;;;;;;;;;14.30;64.30;;;;;;5025189;28;20474;-87
2022/12/19 11:39:07;;;;;;;;;;;14.30;64.20;;;;;;5025815;28;20383;-88
2022/12/19 11:41:41;;;;;;;;;;;14.40;64.30;;;;;;5025274;28;19932;-87
2022/12/19 11:44:12;;;;;;;;;;;14.50;64.30;;;;;;5026270;28;19921;-87
2022/12/19 11:46:48;;;;;;;;;;;14.60;64.30;;;;;;5025830;28;20338;-88
2022/12/19 11:49:27;;;;;;;;;;;14.70;64.30;;;;;;5018026;28;19921;-88
2022/12/19 11:52:02;;;;;;;;;;;14.80;64.20;;;;;;5019249;28;19932;-87
2022/12/19 11:54:27;;;;;;;;;;;14.80;64.20;;;;;;5019049;28;19940;-86
2022/12/19 11:56:54;;;;;;;;;;;14.90;64.40;;;;;;5043686;28;19925;-87
2022/12/19 11:59:23;;;;;;;;;;;15.00;64.20;;;;;;5016458;28;20602;-88
2022/12/19 12:01:59;;;;;;;;;;;15.00;64.10;;;;;;5044401;28;19932;-89
2022/12/19 12:04:28;;;;;;;;;;;15.00;64.00;;;;;;5040894;28;20270;-87
2022/12/19 12:06:54;;;;;;;;;;;15.00;63.80;;;;;;5025950;28;19931;-89
2022/12/19 12:09:29;;;;;;;;;;;14.90;63.70;;;;;;5026015;28;19924;-88
2022/12/19 12:12:04;;;;;;;;;;;14.80;63.60;;;;;;5025161;28;19928;-88
2022/12/19 12:14:48;;;;;;;;;;;14.70;63.70;;;;;;5028667;28;19917;-86
2022/12/19 12:17:13;;;;;;;;;;;14.70;64.00;;;;;;5030874;28;19967;-87
2022/12/19 12:19:57;;;;;;;;;;;14.70;64.20;;;;;;5029345;28;19952;-87
2022/12/19 12:22:23;;;;;;;;;;;14.70;64.30;;;;;;5028656;28;20958;-86
2022/12/19 12:25:03;;;;;;;;;;;14.80;64.30;;;;;;5030413;28;20448;-88
2022/12/19 12:27:38;;;;;;;;;;;14.80;64.10;;;;;;5029877;28;19917;-88
2022/12/19 12:30:18;;;;;;;;;;;14.80;64.00;;;;;;5031037;28;20308;-88
2022/12/19 12:33:03;;;;;;;;;;;14.80;63.90;;;;;;5030329;28;19987;-88
2022/12/19 12:35:34;;;;;;;;;;;14.80;63.80;;;;;;5026283;28;19963;-86
2022/12/19 12:38:06;;;;;;;;;;;14.80;63.80;;;;;;5029756;28;19928;-87
2022/12/19 12:40:36;;;;;;;;;;;14.80;63.80;;;;;;5030660;28;19956;-88
2022/12/19 12:43:02;;;;;;;;;;;14.80;63.70;;;;;;5029379;28;19932;-87
2022/12/19 12:45:34;;;;;;;;;;;14.70;63.60;;;;;;5030076;28;19925;-88
2022/12/19 12:48:00;;;;;;;;;;;14.70;63.60;;;;;;5029084;28;19921;-86
2022/12/19 12:50:26;;;;;;;;;;;14.80;63.50;;;;;;5027836;28;19925;-87
2022/12/19 12:52:53;;;;;;;;;;;14.70;63.50;;;;;;5001727;28;19965;-87
2022/12/19 12:55:21;;;;;;;;;;;14.70;63.40;;;;;;5028738;28;20041;-89
2022/12/19 12:57:47;;;;;;;;;;;14.70;63.70;;;;;;5026495;28;19944;-87
2022/12/19 13:00:20;;;;;;;;;;;14.60;63.70;;;;;;5028965;28;19917;-87
2022/12/19 13:02:48;;;;;;;;;;;14.60;63.70;;;;;;5045504;28;19929;-88
2022/12/19 13:05:34;;;;;;;;;;;14.50;63.70;;;;;;5029621;28;20356;-88
2022/12/19 13:08:02;;;;;;;;;;;14.50;63.60;;;;;;5028430;28;19921;-89
2022/12/19 13:10:31;;;;;;;;;;;14.40;63.80;;;;;;5035389;28;19932;-89
2022/12/19 13:12:59;;;;;;;;;;;14.40;63.80;;;;;;5030167;28;19979;-89
2022/12/19 13:15:28;;;;;;;;;;;14.40;63.90;;;;;;5009419;28;19914;-87
2022/12/19 13:17:54;;;;;;;;;;;14.50;64.00;;;;;;5023519;28;20431;-88
2022/12/19 13:20:22;;;;;;;;;;;14.50;63.90;;;;;;5010748;28;19913;-87
2022/12/19 13:22:57;;;;;;;;;;;14.40;63.90;;;;;;5014007;28;20438;-88
2022/12/19 13:25:25;;;;;;;;;;;14.50;64.00;;;;;;5031379;28;19928;-88
2022/12/19 13:27:56;;;;;;;;;;;14.40;63.90;;;;;;5026647;28;20642;-89
2022/12/19 13:30:22;;;;;;;;;;;14.50;63.90;;;;;;5026842;28;19924;-90
2022/12/19 13:32:48;;;;;;;;;;;14.40;64.00;;;;;;5029186;28;19921;-88
2022/12/19 13:35:14;;;;;;;;;;;14.50;63.90;;;;;;5031959;28;19916;-89
2022/12/19 13:37:41;;;;;;;;;;;14.50;63.80;;;;;;5030214;28;20519;-88
2022/12/19 13:40:21;;;;;;;;;;;14.50;63.90;;;;;;5028488;28;19960;-86
2022/12/19 13:45:36;;;;;;;;;;;14.50;63.90;;;;;;5027659;28;19927;-89
2022/12/19 13:48:05;;;;;;;;;;;14.50;64.00;;;;;;5028607;28;20019;-89
2022/12/19 13:50:31;;;;;;;;;;;14.50;64.10;;;;;;5028040;28;20189;-89
2022/12/19 13:52:56;;;;;;;;;;;14.60;63.90;;;;;;5027637;28;19928;-87
2022/12/19 13:55:22;;;;;;;;;;;14.60;63.80;;;;;;5025782;28;19923;-89
2022/12/19 13:57:51;;;;;;;;;;;14.60;63.70;;;;;;5026691;28;19940;-89
2022/12/19 14:00:18;;;;;;;;;;;14.60;63.70;;;;;;5008838;28;19968;-89
2022/12/19 14:02:47;;;;;;;;;;;14.60;63.60;;;;;;5017004;28;19970;-88
2022/12/19 14:05:28;;;;;;;;;;;14.70;63.60;;;;;;5027878;28;20330;-89
2022/12/19 14:07:54;;;;;;;;;;;14.60;63.50;;;;;;5024764;28;19931;-88
2022/12/19 14:10:31;;;;;;;;;;;14.60;63.50;;;;;;5017808;28;19922;-88
2022/12/19 14:15:46;;;;;;;;;;;14.50;63.50;;;;;;5028883;28;19924;-88
2022/12/19 14:18:41;;;;;;;;;;;14.50;63.40;;;;;;5026667;28;19999;-88
2022/12/19 14:21:12;;;;;;;;;;;14.50;63.40;;;;;;5013739;28;19913;-90
2022/12/19 14:23:38;;;;;;;;;;;14.40;63.30;;;;;;5026325;28;19925;-91
2022/12/19 14:26:07;;;;;;;;;;;14.40;63.30;;;;;;5026485;28;20296;-89
2022/12/19 14:28:35;;;;;;;;;;;14.40;63.40;;;;;;5026008;28;19933;-88
2022/12/19 14:31:02;;;;;;;;;;;14.30;63.40;;;;;;5026520;28;20419;-89
2022/12/19 14:33:35;;;;;;;;;;;14.30;63.40;;;;;;5030721;28;19921;-88
2022/12/19 14:36:01;;;;;;;;;;;14.30;63.30;;;;;;5016723;28;19921;-88
2022/12/19 14:38:31;;;;;;;;;;;14.30;63.30;;;;;;5025272;28;19952;-89
2022/12/19 14:40:56;;;;;;;;;;;14.30;63.30;;;;;;5027807;28;19913;-89
2022/12/19 14:43:38;;;;;;;;;;;14.30;63.30;;;;;;5023913;28;19927;-87
2022/12/19 14:46:19;;;;;;;;;;;14.20;63.20;;;;;;5018606;28;19928;-88